createdAt,value
2019-03-30T00:00:30.387Z,46.56
2019-03-30T00:02:58.368Z,46.36
2019-03-30T00:05:26.618Z,46.46
2019-03-30T00:07:54.623Z,46.21
2019-03-30T00:10:23.015Z,46.84
2019-03-30T00:12:50.982Z,46.87
2019-03-30T00:15:19.054Z,46.90
2019-03-30T00:17:47.212Z,46.86
2019-03-30T00:20:15.179Z,46.47
2019-03-30T00:22:43.194Z,46.35
2019-03-30T00:25:11.207Z,45.93
2019-03-30T00:27:39.194Z,46.14
2019-03-30T00:30:07.190Z,46.43
2019-03-30T00:32:35.199Z,47.57
2019-03-30T00:35:04.746Z,47.20
2019-03-30T00:37:32.798Z,46.97
2019-03-30T00:40:03.869Z,46.20
2019-03-30T00:42:31.854Z,46.60
2019-03-30T00:44:59.931Z,46.72
2019-03-30T00:47:27.935Z,46.31
2019-03-30T00:49:55.922Z,46.58
2019-03-30T00:52:23.919Z,46.74
2019-03-30T00:54:51.895Z,47.04
2019-03-30T00:57:19.894Z,46.58
2019-03-30T00:59:47.887Z,47.29
2019-03-30T01:02:15.862Z,47.13
2019-03-30T01:04:43.886Z,46.70
2019-03-30T01:07:11.913Z,46.53
2019-03-30T01:09:39.961Z,46.20
2019-03-30T01:12:08.010Z,46.35
2019-03-30T01:14:36.002Z,46.55
2019-03-30T01:17:05.882Z,46.91
2019-03-30T01:19:38.539Z,46.80
2019-03-30T01:22:06.608Z,46.97
2019-03-30T01:24:34.591Z,46.39
2019-03-30T01:27:02.572Z,47.14
2019-03-30T01:29:30.614Z,46.64
2019-03-30T01:31:58.680Z,46.84
2019-03-30T01:34:26.705Z,46.36
2019-03-30T01:36:54.777Z,46.79
2019-03-30T01:39:22.771Z,46.18
2019-03-30T01:41:50.776Z,46.97
2019-03-30T01:44:18.798Z,47.39
2019-03-30T01:46:46.755Z,46.60
2019-03-30T01:49:14.727Z,47.42
2019-03-30T01:51:42.734Z,47.19
2019-03-30T01:54:10.829Z,46.81
2019-03-30T01:56:40.063Z,47.07
2019-03-30T01:59:13.840Z,47.20
2019-03-30T02:01:41.855Z,46.54
2019-03-30T02:04:09.924Z,46.93
2019-03-30T02:06:37.903Z,46.54
2019-03-30T02:09:06.188Z,46.06
2019-03-30T02:11:34.206Z,46.66
2019-03-30T02:14:02.175Z,46.52
2019-03-30T02:16:30.150Z,46.82
2019-03-30T02:18:58.206Z,46.33
2019-03-30T02:21:26.259Z,46.41
2019-03-30T02:23:54.279Z,46.75
2019-03-30T02:26:22.287Z,46.85
2019-03-30T02:28:50.274Z,46.94
2019-03-30T02:31:18.278Z,46.39
2019-03-30T02:33:46.295Z,46.90
2019-03-30T02:36:14.303Z,45.94
2019-03-30T02:38:51.854Z,46.41
2019-03-30T02:41:19.863Z,46.90
2019-03-30T02:43:47.847Z,46.91
2019-03-30T02:46:15.875Z,47.37
2019-03-30T02:48:43.967Z,46.77
2019-03-30T02:51:11.982Z,47.10
2019-03-30T02:53:39.975Z,47.14
2019-03-30T02:56:07.964Z,47.10
2019-03-30T02:58:36.034Z,46.85
2019-03-30T03:01:04.020Z,46.73
2019-03-30T03:03:32.246Z,46.57
2019-03-30T03:06:00.328Z,46.74
2019-03-30T03:08:28.311Z,46.50
2019-03-30T03:10:56.536Z,46.29
2019-03-30T03:13:24.528Z,46.89
2019-03-30T03:15:57.512Z,46.48
2019-03-30T03:18:27.944Z,46.21
2019-03-30T03:21:07.412Z,46.27
2019-03-30T03:23:25.675Z,47.23
2019-03-30T03:25:53.660Z,46.48
2019-03-30T03:28:21.685Z,46.50
2019-03-30T03:30:49.731Z,47.00
2019-03-30T03:33:17.729Z,47.24
2019-03-30T03:35:45.781Z,46.28
2019-03-30T03:38:13.785Z,46.57
2019-03-30T03:40:41.775Z,46.27
2019-03-30T03:43:09.759Z,47.38
2019-03-30T03:45:37.731Z,46.58
2019-03-30T03:48:05.733Z,46.93
2019-03-30T03:50:35.882Z,46.50
2019-03-30T03:53:07.579Z,46.66
2019-03-30T03:55:36.891Z,47.28
2019-03-30T03:58:05.561Z,47.04
2019-03-30T04:00:33.553Z,46.33
2019-03-30T04:03:01.519Z,46.96
2019-03-30T04:05:29.507Z,46.23
2019-03-30T04:07:57.501Z,47.09
2019-03-30T04:10:25.611Z,47.33
2019-03-30T04:12:53.570Z,46.71
2019-03-30T04:15:24.647Z,47.34
2019-03-30T04:17:52.637Z,47.12
2019-03-30T04:20:22.878Z,46.50
2019-03-30T04:22:50.880Z,46.62
2019-03-30T04:25:19.225Z,46.92
2019-03-30T04:27:47.248Z,46.74
2019-03-30T04:30:17.229Z,46.86
2019-03-30T04:32:44.943Z,46.86
2019-03-30T04:35:12.951Z,46.96
2019-03-30T04:37:40.929Z,47.09
2019-03-30T04:40:08.920Z,47.12
2019-03-30T04:42:36.899Z,47.81
2019-03-30T04:45:04.894Z,47.09
2019-03-30T04:47:32.966Z,47.18
2019-03-30T04:50:00.936Z,47.42
2019-03-30T04:52:28.930Z,46.76
2019-03-30T04:54:56.903Z,46.55
2019-03-30T04:57:24.899Z,46.92
2019-03-30T04:59:52.882Z,47.34
2019-03-30T05:02:20.870Z,47.11
2019-03-30T05:04:48.877Z,46.99
2019-03-30T05:07:16.971Z,47.49
2019-03-30T05:09:44.967Z,47.14
2019-03-30T05:12:14.613Z,47.12
2019-03-30T05:14:42.607Z,47.08
2019-03-30T05:17:10.626Z,47.61
2019-03-30T05:19:38.636Z,47.34
2019-03-30T05:22:12.934Z,47.54
2019-03-30T05:24:36.362Z,47.31
2019-03-30T05:27:04.402Z,47.36
2019-03-30T05:29:32.412Z,47.78
2019-03-30T05:32:00.383Z,47.40
2019-03-30T05:34:28.392Z,48.04
2019-03-30T05:36:56.395Z,47.56
2019-03-30T05:39:24.394Z,47.48
2019-03-30T05:41:52.453Z,47.45
2019-03-30T05:44:20.432Z,47.60
2019-03-30T05:46:48.782Z,48.05
2019-03-30T05:49:16.998Z,48.02
2019-03-30T05:51:44.980Z,47.68
2019-03-30T05:54:14.459Z,47.86
2019-03-30T05:56:45.360Z,48.17
2019-03-30T05:59:13.314Z,48.21
2019-03-30T06:01:41.302Z,48.38
2019-03-30T06:04:09.795Z,48.14
2019-03-30T06:06:37.793Z,48.77
2019-03-30T06:09:06.546Z,48.61
2019-03-30T06:11:34.530Z,48.50
2019-03-30T06:14:02.506Z,47.87
2019-03-30T06:16:30.490Z,48.09
2019-03-30T06:18:58.492Z,47.29
2019-03-30T06:21:26.474Z,48.78
2019-03-30T06:23:54.478Z,49.16
2019-03-30T06:26:22.454Z,49.03
2019-03-30T06:28:50.430Z,48.59
2019-03-30T06:31:19.591Z,47.39
2019-03-30T06:33:50.112Z,46.77
2019-03-30T06:36:18.362Z,48.72
2019-03-30T06:38:46.386Z,50.02
2019-03-30T06:41:14.350Z,48.85
2019-03-30T06:43:42.714Z,46.69
2019-03-30T06:46:10.729Z,48.75
2019-03-30T06:48:38.980Z,47.57
2019-03-30T06:51:06.997Z,50.60
2019-03-30T06:53:34.980Z,48.07
2019-03-30T06:56:02.961Z,47.54
2019-03-30T06:58:30.938Z,46.78
2019-03-30T07:00:58.921Z,51.13
2019-03-30T07:03:26.934Z,46.75
2019-03-30T07:05:54.951Z,47.57
2019-03-30T07:08:23.293Z,51.49
2019-03-30T07:11:20.421Z,46.58
2019-03-30T07:13:38.979Z,51.59
2019-03-30T07:16:06.968Z,51.90
2019-03-30T07:18:35.062Z,46.85
2019-03-30T07:21:03.147Z,52.12
2019-03-30T07:23:31.219Z,45.79
2019-03-30T07:25:59.219Z,47.71
2019-03-30T07:28:27.247Z,48.88
2019-03-30T07:30:55.244Z,47.47
2019-03-30T07:33:23.255Z,49.11
2019-03-30T07:35:51.238Z,46.83
2019-03-30T07:38:19.231Z,46.31
2019-03-30T07:40:47.248Z,48.85
2019-03-30T07:43:17.411Z,50.89
2019-03-30T07:45:45.456Z,50.21
2019-03-30T07:48:13.537Z,51.02
2019-03-30T07:50:41.766Z,47.65
2019-03-30T07:53:09.762Z,48.60
2019-03-30T07:55:37.878Z,49.04
2019-03-30T07:58:05.874Z,47.95
2019-03-30T08:00:33.942Z,47.62
2019-03-30T08:03:01.918Z,46.98
2019-03-30T08:05:29.993Z,48.46
2019-03-30T08:07:57.966Z,47.62
2019-03-30T08:10:25.950Z,48.60
2019-03-30T08:12:53.959Z,47.60
2019-03-30T08:15:21.949Z,47.62
2019-03-30T08:17:49.948Z,47.63
2019-03-30T08:20:18.016Z,47.55
2019-03-30T08:22:48.413Z,47.75
2019-03-30T08:25:20.176Z,48.33
2019-03-30T08:27:48.182Z,48.11
2019-03-30T08:30:16.175Z,48.10
2019-03-30T08:32:44.216Z,48.06
2019-03-30T08:35:12.198Z,49.53
2019-03-30T08:37:40.182Z,50.64
2019-03-30T08:40:08.216Z,51.31
2019-03-30T08:42:36.291Z,50.70
2019-03-30T08:45:04.842Z,48.26
2019-03-30T08:47:32.855Z,48.93
2019-03-30T08:50:01.224Z,49.72
2019-03-30T08:52:29.654Z,49.11
2019-03-30T08:55:19.238Z,48.58
2019-03-30T08:57:47.255Z,48.49
2019-03-30T09:00:16.890Z,48.41
2019-03-30T09:02:44.858Z,48.97
2019-03-30T09:05:12.822Z,48.78
2019-03-30T09:07:40.847Z,49.34
2019-03-30T09:10:08.884Z,48.71
2019-03-30T09:12:37.047Z,48.67
2019-03-30T09:15:05.414Z,49.43
2019-03-30T09:17:37.047Z,48.87
2019-03-30T09:20:03.497Z,48.76
2019-03-30T09:22:31.490Z,48.15
2019-03-30T09:24:59.758Z,49.34
2019-03-30T09:27:27.792Z,48.37
2019-03-30T09:29:58.084Z,48.69
2019-03-30T09:32:33.887Z,48.21
2019-03-30T09:35:02.936Z,48.60
2019-03-30T09:37:30.956Z,48.26
2019-03-30T09:39:58.998Z,48.89
2019-03-30T09:42:26.987Z,48.84
2019-03-30T09:44:54.969Z,48.84
2019-03-30T09:47:22.943Z,49.23
2019-03-30T09:49:50.961Z,49.02
2019-03-30T09:52:18.933Z,49.16
2019-03-30T09:54:47.473Z,49.19
2019-03-30T10:00:37.694Z,49.28
2019-03-30T10:03:06.298Z,49.13
2019-03-30T10:05:34.405Z,49.09
2019-03-30T10:08:02.570Z,49.38
2019-03-30T10:10:30.712Z,49.22
2019-03-30T10:12:58.718Z,49.54
2019-03-30T10:15:26.731Z,49.42
2019-03-30T10:18:10.725Z,50.07
2019-03-30T10:20:38.711Z,49.55
2019-03-30T10:23:06.867Z,48.97
2019-03-30T10:25:34.885Z,49.07
2019-03-30T10:28:02.882Z,49.15
2019-03-30T10:30:30.887Z,49.33
2019-03-30T10:32:59.216Z,48.93
2019-03-30T10:35:27.539Z,48.71
2019-03-30T10:37:55.680Z,49.35
2019-03-30T10:40:23.985Z,49.21
2019-03-30T10:42:52.198Z,48.94
2019-03-30T10:45:20.494Z,48.87
2019-03-30T10:47:50.005Z,49.06
2019-03-30T10:50:29.041Z,49.00
2019-03-30T10:52:57.292Z,49.66
2019-03-30T10:55:25.521Z,49.19
2019-03-30T10:57:53.813Z,48.94
2019-03-30T11:00:37.796Z,49.12
2019-03-30T11:03:06.250Z,49.45
2019-03-30T11:05:34.269Z,48.14
2019-03-30T11:08:02.241Z,48.65
2019-03-30T11:10:30.262Z,48.72
2019-03-30T11:12:58.270Z,49.35
2019-03-30T11:15:34.317Z,49.45
2019-03-30T11:18:02.665Z,49.02
2019-03-30T11:20:30.684Z,48.87
2019-03-30T11:22:58.654Z,48.63
2019-03-30T11:25:26.647Z,48.36
2019-03-30T11:27:54.666Z,48.41
2019-03-30T11:30:22.766Z,48.91
2019-03-30T11:32:50.783Z,48.72
2019-03-30T11:35:19.127Z,48.46
2019-03-30T11:37:47.142Z,47.73
2019-03-30T11:40:15.173Z,48.26
2019-03-30T11:42:43.185Z,48.21
2019-03-30T11:45:11.191Z,48.54
2019-03-30T11:47:39.166Z,48.72
2019-03-30T11:50:07.235Z,48.37
2019-03-30T11:52:37.401Z,48.37
2019-03-30T11:55:21.039Z,48.44
2019-03-30T11:57:37.682Z,48.36
2019-03-30T12:00:06.095Z,48.55
2019-03-30T12:02:36.186Z,48.39
2019-03-30T12:05:04.600Z,47.96
2019-03-30T12:07:33.756Z,48.06
2019-03-30T12:10:02.957Z,48.38
2019-03-30T12:12:31.079Z,48.45
2019-03-30T12:14:59.062Z,48.69
2019-03-30T12:17:27.130Z,48.34
2019-03-30T12:19:55.252Z,49.08
2019-03-30T12:22:23.399Z,48.07
2019-03-30T12:24:51.412Z,49.13
2019-03-30T12:27:19.411Z,48.29
2019-03-30T12:29:50.926Z,49.00
2019-03-30T12:32:19.533Z,49.30
2019-03-30T12:34:47.663Z,49.33
2019-03-30T12:37:15.699Z,49.52
2019-03-30T12:39:43.691Z,49.43
2019-03-30T12:42:11.681Z,48.89
2019-03-30T12:44:39.756Z,47.72
2019-03-30T12:47:10.269Z,48.38
2019-03-30T12:49:37.475Z,48.46
2019-03-30T12:52:05.487Z,48.64
2019-03-30T12:54:33.489Z,48.20
2019-03-30T12:57:01.470Z,48.38
2019-03-30T12:59:29.483Z,48.63
2019-03-30T13:01:57.471Z,48.40
2019-03-30T13:04:27.572Z,48.45
2019-03-30T13:07:03.079Z,48.43
2019-03-30T13:09:34.621Z,48.71
2019-03-30T13:12:01.388Z,48.74
2019-03-30T13:14:29.450Z,48.41
2019-03-30T13:16:57.638Z,48.59
2019-03-30T13:19:25.949Z,48.39
2019-03-30T13:21:54.011Z,48.83
2019-03-30T13:24:22.306Z,48.28
2019-03-30T13:26:50.658Z,47.74
2019-03-30T13:29:18.644Z,47.35
2019-03-30T13:31:46.706Z,47.49
2019-03-30T13:34:14.751Z,47.47
2019-03-30T13:36:43.742Z,47.84
2019-03-30T13:39:11.761Z,47.66
2019-03-30T13:41:40.853Z,47.62
2019-03-30T13:44:09.276Z,47.86
2019-03-30T13:46:37.267Z,47.88
2019-03-30T13:49:05.322Z,48.07
2019-03-30T13:51:33.418Z,47.73
2019-03-30T13:54:01.601Z,46.86
2019-03-30T13:56:29.609Z,48.24
2019-03-30T13:58:57.689Z,47.90
2019-03-30T14:01:25.677Z,48.15
2019-03-30T14:03:53.909Z,47.50
2019-03-30T14:06:21.901Z,47.93
2019-03-30T14:08:49.928Z,47.57
2019-03-30T14:11:17.934Z,47.18
2019-03-30T14:13:45.947Z,47.14
2019-03-30T14:16:13.938Z,47.80
2019-03-30T14:18:41.987Z,47.67
2019-03-30T14:21:10.146Z,46.62
2019-03-30T14:23:44.038Z,46.52
2019-03-30T14:29:34.285Z,46.35
2019-03-30T14:32:02.390Z,46.58
2019-03-30T14:34:32.592Z,45.61
2019-03-30T14:37:00.632Z,45.87
2019-03-30T14:39:28.657Z,46.68
2019-03-30T14:41:56.662Z,46.77
2019-03-30T14:44:24.701Z,47.54
2019-03-30T14:46:52.690Z,44.77
2019-03-30T14:49:20.687Z,43.91
2019-03-30T14:51:48.694Z,47.13
2019-03-30T14:54:16.694Z,45.56
2019-03-30T14:56:46.135Z,46.97
2019-03-30T14:59:14.675Z,45.73
2019-03-30T15:01:42.711Z,43.46
2019-03-30T15:04:10.836Z,46.46
2019-03-30T15:06:39.069Z,44.75
2019-03-30T15:09:26.018Z,44.04
2019-03-30T15:11:41.750Z,43.25
2019-03-30T15:14:09.746Z,43.24
2019-03-30T15:16:37.814Z,46.63
2019-03-30T15:19:06.503Z,43.63
2019-03-30T15:21:34.609Z,43.93
2019-03-30T15:24:02.672Z,42.98
2019-03-30T15:26:30.727Z,45.54
2019-03-30T15:28:58.872Z,43.51
2019-03-30T15:31:27.104Z,46.78
2019-03-30T15:33:55.132Z,44.09
2019-03-30T15:36:23.222Z,43.31
2019-03-30T15:38:51.192Z,45.81
2019-03-30T15:41:19.192Z,43.17
2019-03-30T15:43:47.238Z,44.83
2019-03-30T15:46:15.207Z,44.64
2019-03-30T15:48:43.606Z,46.31
2019-03-30T15:51:13.339Z,42.63
2019-03-30T15:53:41.358Z,43.20
2019-03-30T15:56:09.458Z,45.10
2019-03-30T15:58:37.491Z,43.82
2019-03-30T16:01:05.559Z,44.97
2019-03-30T16:03:33.670Z,43.56
2019-03-30T16:06:01.757Z,44.00
2019-03-30T16:08:29.846Z,45.98
2019-03-30T16:10:58.966Z,46.51
2019-03-30T16:13:26.943Z,45.58
2019-03-30T16:15:55.036Z,43.87
2019-03-30T16:18:23.138Z,44.34
2019-03-30T16:20:51.162Z,45.15
2019-03-30T16:23:19.220Z,47.33
2019-03-30T16:25:47.320Z,46.42
2019-03-30T16:28:18.127Z,46.81
2019-03-30T16:30:49.615Z,46.89
2019-03-30T16:33:17.657Z,46.73
2019-03-30T16:35:45.763Z,46.68
2019-03-30T16:38:13.812Z,45.19
2019-03-30T16:40:44.943Z,46.98
2019-03-30T16:43:19.130Z,47.35
2019-03-30T16:45:47.162Z,46.28
2019-03-30T16:48:15.140Z,44.97
2019-03-30T16:50:43.139Z,45.01
2019-03-30T16:53:11.135Z,47.06
2019-03-30T16:55:39.934Z,47.00
2019-03-30T16:58:07.972Z,46.91
2019-03-30T17:00:55.586Z,46.48
2019-03-30T17:03:08.523Z,46.85
2019-03-30T17:05:36.652Z,46.95
2019-03-30T17:08:04.655Z,46.11
2019-03-30T17:10:32.654Z,46.36
2019-03-30T17:13:00.801Z,46.59
2019-03-30T17:15:28.783Z,46.08
2019-03-30T17:17:56.787Z,46.95
2019-03-30T17:20:24.811Z,46.85
2019-03-30T17:22:52.840Z,46.64
2019-03-30T17:25:20.847Z,47.08
2019-03-30T17:27:58.281Z,46.56
2019-03-30T17:30:18.579Z,46.02
2019-03-30T17:32:47.010Z,46.95
2019-03-30T17:35:15.059Z,44.68
2019-03-30T17:37:43.176Z,46.04
2019-03-30T17:40:16.171Z,45.04
2019-03-30T17:42:44.146Z,45.73
2019-03-30T17:45:12.150Z,45.67
2019-03-30T17:47:40.174Z,44.32
2019-03-30T17:50:08.269Z,44.89
2019-03-30T17:52:36.362Z,44.63
2019-03-30T17:55:04.501Z,44.39
2019-03-30T17:57:32.478Z,44.93
2019-03-30T18:00:00.486Z,45.64
2019-03-30T18:02:28.823Z,45.41
2019-03-30T18:04:56.827Z,45.76
2019-03-30T18:07:24.871Z,45.96
2019-03-30T18:09:52.883Z,45.43
2019-03-30T18:12:20.871Z,45.61
2019-03-30T18:14:48.859Z,44.91
2019-03-30T18:17:25.783Z,45.52
2019-03-30T18:19:53.866Z,45.50
2019-03-30T18:22:21.827Z,45.34
2019-03-30T18:24:49.822Z,45.08
2019-03-30T18:27:17.819Z,45.47
2019-03-30T18:29:45.808Z,45.43
2019-03-30T18:32:13.811Z,46.17
2019-03-30T18:34:41.831Z,46.55
2019-03-30T18:37:09.870Z,45.13
2019-03-30T18:39:37.871Z,46.50
2019-03-30T18:42:06.744Z,46.37
2019-03-30T18:44:35.402Z,45.34
2019-03-30T18:47:03.823Z,45.95
2019-03-30T18:49:33.718Z,45.72
2019-03-30T18:52:01.781Z,45.64
2019-03-30T18:54:36.796Z,45.93
2019-03-30T18:57:05.913Z,46.11
2019-03-30T18:59:34.371Z,46.10
2019-03-30T19:02:03.137Z,46.63
2019-03-30T19:04:31.214Z,45.65
2019-03-30T19:07:02.095Z,47.20
2019-03-30T19:09:30.118Z,46.88
2019-03-30T19:11:58.194Z,46.30
2019-03-30T19:14:26.207Z,45.78
2019-03-30T19:16:54.443Z,44.70
2019-03-30T19:19:22.426Z,47.19
2019-03-30T19:21:50.418Z,44.24
2019-03-30T19:24:18.437Z,46.00
2019-03-30T19:26:46.648Z,47.02
2019-03-30T19:29:18.218Z,44.90
2019-03-30T19:31:51.088Z,44.98
2019-03-30T19:34:20.226Z,46.49
2019-03-30T19:36:48.211Z,46.37
2019-03-30T19:39:16.628Z,44.25
2019-03-30T19:41:44.609Z,45.14
2019-03-30T19:44:12.680Z,45.84
2019-03-30T19:46:40.697Z,45.65
2019-03-30T19:49:08.707Z,46.41
2019-03-30T19:51:36.751Z,44.67
2019-03-30T19:54:04.735Z,45.16
2019-03-30T19:56:32.754Z,46.97
2019-03-30T19:59:10.635Z,46.48
2019-03-30T20:01:30.617Z,46.26
2019-03-30T20:03:58.606Z,46.95
2019-03-30T20:06:29.473Z,46.61
2019-03-30T20:09:00.180Z,45.97
2019-03-30T20:11:28.348Z,46.32
2019-03-30T20:13:56.369Z,46.26
2019-03-30T20:16:24.385Z,45.90
2019-03-30T20:19:05.376Z,47.26
2019-03-30T20:21:22.331Z,45.29
2019-03-30T20:23:50.335Z,46.28
2019-03-30T20:26:18.327Z,46.55
2019-03-30T20:28:46.382Z,44.77
2019-03-30T20:31:14.369Z,45.45
2019-03-30T20:33:42.430Z,46.32
2019-03-30T20:36:10.422Z,44.69
2019-03-30T20:38:38.459Z,47.48
2019-03-30T20:41:06.494Z,46.43
2019-03-30T20:43:42.941Z,45.34
2019-03-30T20:46:10.990Z,46.60
2019-03-30T20:48:38.971Z,45.77
2019-03-30T20:51:07.290Z,46.98
2019-03-30T20:53:35.266Z,46.37
2019-03-30T20:56:03.330Z,45.60
2019-03-30T20:58:31.320Z,46.63
2019-03-30T21:00:59.315Z,46.53
2019-03-30T21:03:27.297Z,46.37
2019-03-30T21:05:55.290Z,46.40
2019-03-30T21:08:23.294Z,47.06
2019-03-30T21:10:51.275Z,46.68
2019-03-30T21:13:19.257Z,46.79
2019-03-30T21:15:47.230Z,45.79
2019-03-30T21:18:15.259Z,45.99
2019-03-30T21:20:43.288Z,46.98
2019-03-30T21:23:19.506Z,47.18
2019-03-30T21:25:47.473Z,46.09
2019-03-30T21:28:15.531Z,47.08
2019-03-30T21:30:43.543Z,46.54
2019-03-30T21:33:11.591Z,46.49
2019-03-30T21:35:39.634Z,47.87
2019-03-30T21:38:07.623Z,47.35
2019-03-30T21:40:35.627Z,46.99
2019-03-30T21:43:03.616Z,45.55
2019-03-30T21:45:31.594Z,47.25
2019-03-30T21:47:59.586Z,48.72
2019-03-30T21:50:27.578Z,47.96
2019-03-30T21:52:55.616Z,47.50
2019-03-30T21:55:26.390Z,47.50
2019-03-30T21:57:54.391Z,47.39
2019-03-30T22:00:34.999Z,45.73
2019-03-30T22:03:03.034Z,46.64
2019-03-30T22:05:31.013Z,46.20
2019-03-30T22:07:58.998Z,46.66
2019-03-30T22:10:27.515Z,46.51
2019-03-30T22:12:55.550Z,46.20
2019-03-30T22:15:26.483Z,45.88
2019-03-30T22:17:54.498Z,48.33
2019-03-30T22:20:22.515Z,45.29
2019-03-30T22:22:50.558Z,47.66
2019-03-30T22:25:18.629Z,47.15
2019-03-30T22:27:46.611Z,47.30
2019-03-30T22:30:24.538Z,47.65
2019-03-30T22:32:51.615Z,48.42
2019-03-30T22:35:19.615Z,45.96
2019-03-30T22:37:47.707Z,46.42
2019-03-30T22:40:15.681Z,48.63
2019-03-30T22:42:43.690Z,47.54
2019-03-30T22:45:11.801Z,47.95
2019-03-30T22:47:39.851Z,47.15
2019-03-30T22:50:07.924Z,47.69
2019-03-30T22:52:35.915Z,47.56
2019-03-30T22:55:04.242Z,48.13
2019-03-30T22:57:32.270Z,48.28
2019-03-30T23:00:00.634Z,48.47
2019-03-30T23:02:28.699Z,46.81
2019-03-30T23:04:56.759Z,48.52
2019-03-30T23:07:26.704Z,48.02
2019-03-30T23:09:55.838Z,49.28
2019-03-30T23:12:26.320Z,48.08
2019-03-30T23:14:54.315Z,48.04
2019-03-30T23:17:22.513Z,49.51
2019-03-30T23:19:50.546Z,48.27
2019-03-30T23:22:18.684Z,47.04
2019-03-30T23:24:46.758Z,51.37
2019-03-30T23:27:14.766Z,49.15
2019-03-30T23:29:42.831Z,48.49
2019-03-30T23:32:10.807Z,47.82
2019-03-30T23:34:38.793Z,47.77
2019-03-30T23:37:06.772Z,48.36
2019-03-30T23:39:34.783Z,49.35
2019-03-30T23:42:02.791Z,48.08
2019-03-30T23:44:30.781Z,48.97
2019-03-30T23:47:00.192Z,47.93
2019-03-30T23:49:29.378Z,48.69
2019-03-30T23:51:59.527Z,49.79
2019-03-30T23:54:27.538Z,48.64
2019-03-30T23:56:55.528Z,47.96
2019-03-30T23:59:23.490Z,50.63
